Time;durP1;ratioP1;P1;durP2;ratioP2;P2;SDS_P1;SDS_P2;PMS_P1;PMS_P2;Temp;Humidity;BMP_temperature;BMP_pressure;BME280_temperature;BME280_humidity;BME280_pressure;Samples;Min_cycle;Max_cycle;Signal;HPM_P1;HPM_P2
2023/06/09 00:02:09;;;;;;;9.45;6.68;;;;;;;16.29;100.00;101584.00;5015767;28;20026;-72
2023/06/09 00:04:35;;;;;;;8.85;6.03;;;;;;;16.34;100.00;101611.22;5030482;28;20116;-72
2023/06/09 00:07:02;;;;;;;8.50;6.72;;;;;;;16.22;100.00;101603.84;5030575;28;20049;-71
2023/06/09 00:09:31;;;;;;;8.98;7.53;;;;;;;15.73;100.00;101546.09;5030407;28;20030;-71
2023/06/09 00:11:56;;;;;;;10.98;6.53;;;;;;;16.25;100.00;101620.88;5015002;28;20030;-71
2023/06/09 00:14:22;;;;;;;8.80;6.85;;;;;;;16.02;100.00;101634.28;5014969;28;20395;-71
2023/06/09 00:16:47;;;;;;;11.20;6.85;;;;;;;16.01;100.00;101600.94;5014976;28;20111;-71
2023/06/09 00:22:42;;;;;;;10.77;7.05;;;;;;;16.12;100.00;101583.59;5015492;28;20081;-70
2023/06/09 00:28:29;;;;;;;7.60;6.70;;;;;;;16.30;100.00;101608.78;5015031;28;20045;-71
2023/06/09 00:30:55;;;;;;;10.45;7.22;;;;;;;15.95;100.00;101578.00;5014143;28;20034;-71
2023/06/09 00:33:20;;;;;;;8.25;6.78;;;;;;;15.68;100.00;101556.44;5014750;28;20407;-71
2023/06/09 00:35:45;;;;;;;9.73;6.50;;;;;;;15.87;100.00;101523.47;5013204;28;20018;-71
2023/06/09 00:41:37;;;;;;;9.25;7.30;;;;;;;15.73;100.00;101594.81;5022235;28;20065;-71
2023/06/09 00:47:26;;;;;;;8.93;7.00;;;;;;;16.48;100.00;101662.22;5015352;28;20098;-71
2023/06/09 00:49:52;;;;;;;10.02;6.93;;;;;;;16.54;100.00;101664.66;5015119;28;20017;-70
2023/06/09 00:52:18;;;;;;;9.07;7.03;;;;;;;16.56;100.00;101691.16;5014621;28;20026;-71
2023/06/09 00:54:43;;;;;;;10.57;7.13;;;;;;;16.68;100.00;101672.06;5014085;28;20052;-71
2023/06/09 00:57:10;;;;;;;12.02;7.40;;;;;;;16.95;100.00;101694.44;5014065;28;20056;-71
2023/06/09 00:59:36;;;;;;;10.35;7.28;;;;;;;16.72;100.00;101684.75;5014284;28;20491;-71
2023/06/09 01:02:05;;;;;;;12.57;7.85;;;;;;;16.80;100.00;101679.41;5029087;28;20357;-72
2023/06/09 01:04:35;;;;;;;10.35;7.50;;;;;;;16.36;100.00;101645.41;5014358;28;20036;-71
2023/06/09 01:10:57;;;;;;;11.15;7.53;;;;;;;16.52;100.00;101658.72;5014147;28;20416;-73
2023/06/09 01:13:40;;;;;;;13.57;8.60;;;;;;;16.29;100.00;101692.66;5004988;28;20404;-73
2023/06/09 01:16:12;;;;;;;9.15;7.25;;;;;;;16.00;100.00;101633.47;5014266;28;20447;-73
2023/06/09 01:18:42;;;;;;;10.70;7.60;;;;;;;16.23;100.00;101654.31;5014036;28;20084;-72
2023/06/09 01:21:12;;;;;;;11.18;6.93;;;;;;;16.52;100.00;101733.19;5013960;28;20391;-73
2023/06/09 01:27:02;;;;;;;12.07;7.50;;;;;;;16.48;100.00;101698.16;5014317;28;20115;-72
2023/06/09 01:29:32;;;;;;;13.98;7.32;;;;;;;16.35;100.00;101666.00;5028784;28;20033;-71
2023/06/09 01:32:00;;;;;;;11.05;7.88;;;;;;;16.56;100.00;101709.13;5013760;28;20113;-71
2023/06/09 01:34:26;;;;;;;8.45;6.53;;;;;;;16.74;100.00;101705.28;5014273;28;20056;-71
2023/06/09 01:36:52;;;;;;;10.77;7.15;;;;;;;15.95;100.00;101665.22;5027109;28;20045;-71
2023/06/09 01:39:18;;;;;;;9.48;7.57;;;;;;;16.37;100.00;101715.56;5012264;28;20492;-71
2023/06/09 01:41:44;;;;;;;9.65;6.68;;;;;;;15.94;100.00;101656.72;5028905;28;20045;-71
2023/06/09 01:44:10;;;;;;;9.75;6.50;;;;;;;16.29;100.00;101681.53;5028780;28;20029;-72
2023/06/09 01:50:07;;;;;;;12.57;8.33;;;;;;;16.43;100.00;101739.38;5013708;28;20084;-71
2023/06/09 01:52:47;;;;;;;15.23;10.25;;;;;;;15.80;100.00;101630.53;5013173;28;20269;-71
2023/06/09 01:55:18;;;;;;;13.55;9.68;;;;;;;16.00;100.00;101674.53;5013167;28;20116;-70
2023/06/09 01:57:59;;;;;;;18.40;10.13;;;;;;;16.39;100.00;101754.91;5012629;28;20038;-71
2023/06/09 02:00:26;;;;;;;12.57;9.18;;;;;;;16.35;100.00;101748.13;5028269;28;20046;-71
2023/06/09 02:02:56;;;;;;;13.63;9.48;;;;;;;16.37;100.00;101777.19;5013301;28;20057;-70
2023/06/09 02:05:22;;;;;;;12.60;9.13;;;;;;;15.90;100.00;101721.81;5011757;28;20040;-70
2023/06/09 02:07:51;;;;;;;14.25;9.32;;;;;;;16.22;100.00;101768.09;5013328;28;20025;-71
2023/06/09 02:10:20;;;;;;;11.88;8.90;;;;;;;16.00;100.00;101743.81;5028201;28;20025;-71
2023/06/09 02:19:38;;;;;;;10.45;8.70;;;;;;;15.85;100.00;101792.88;5037160;28;20317;-71
2023/06/09 02:22:05;;;;;;;12.68;9.30;;;;;;;16.04;100.00;101817.28;5034334;28;20068;-71
2023/06/09 02:24:32;;;;;;;15.15;9.43;;;;;;;16.58;100.00;101883.75;5034609;28;20501;-71
2023/06/09 02:26:57;;;;;;;11.60;9.50;;;;;;;16.09;100.00;101856.50;5052503;28;20033;-71
2023/06/09 02:29:26;;;;;;;14.10;8.75;;;;;;;16.39;100.00;101885.84;5052494;28;20036;-72
2023/06/09 02:31:55;;;;;;;12.45;9.25;;;;;;;15.80;100.00;101840.00;5053021;28;20375;-71
2023/06/09 02:34:22;;;;;;;10.80;8.93;;;;;;;15.48;100.00;101844.03;5052391;28;20036;-72
2023/06/09 02:40:10;;;;;;;12.40;9.85;;;;;;;15.69;100.00;101881.25;5052607;28;20055;-72
2023/06/09 02:45:57;;;;;;;12.25;9.63;;;;;;;15.89;100.00;101958.69;5052570;28;20040;-71
2023/06/09 02:51:44;;;;;;;9.37;8.30;;;;;;;16.14;100.00;101970.19;5052535;28;20040;-71
2023/06/09 02:57:30;;;;;;;9.25;6.45;;;;;;;15.96;100.00;101998.78;5052252;28;20068;-72
2023/06/09 02:59:58;;;;;;;8.25;6.90;;;;;;;16.37;100.00;102067.31;5051417;28;20041;-74
2023/06/09 03:02:24;;;;;;;14.20;8.50;;;;;;;16.14;100.00;102034.34;5052088;28;20021;-72
2023/06/09 03:04:52;;;;;;;14.13;8.27;;;;;;;15.56;100.00;102026.78;5052047;28;20476;-72
2023/06/09 03:10:39;;;;;;;19.27;9.70;;;;;;;16.13;100.00;102078.00;5052351;28;20043;-73
2023/06/09 03:16:27;;;;;;;12.97;8.43;;;;;;;15.89;100.00;102050.19;5051869;28;20502;-71
2023/06/09 03:18:53;;;;;;;15.85;8.90;;;;;;;16.32;100.00;102116.19;5033755;28;20497;-72
2023/06/09 03:21:24;;;;;;;13.73;9.15;;;;;;;16.07;100.00;102088.38;5052292;28;20055;-72
2023/06/09 03:23:50;;;;;;;11.95;8.98;;;;;;;15.63;100.00;102047.22;5051794;28;20174;-70
2023/06/09 03:29:37;;;;;;;15.38;8.52;;;;;;;15.46;100.00;102085.91;5051953;28;20120;-72
2023/06/09 03:32:03;;;;;;;18.60;9.57;;;;;;;15.29;100.00;102068.16;5033135;28;20111;-71
2023/06/09 03:34:29;;;;;;;11.38;9.23;;;;;;;15.14;100.00;102078.63;5033893;28;20036;-73
2023/06/09 03:36:55;;;;;;;10.88;8.23;;;;;;;15.61;100.00;102173.72;5033907;28;20021;-71
2023/06/09 03:39:20;;;;;;;13.35;8.18;;;;;;;15.60;100.00;102213.09;5032995;28;20025;-71
2023/06/09 03:45:07;;;;;;;17.87;10.27;;;;;;;15.25;100.00;102138.25;5052077;28;20036;-71
2023/06/09 03:50:54;;;;;;;13.00;7.60;;;;;;;15.01;100.00;102153.09;5051942;28;20406;-71
2023/06/09 03:53:20;;;;;;;10.77;7.70;;;;;;;15.29;100.00;102196.31;5050085;28;20025;-71
2023/06/09 03:55:46;;;;;;;9.75;8.75;;;;;;;15.11;100.00;102183.75;5051081;28;20021;-71
2023/06/09 03:58:12;;;;;;;11.95;9.43;;;;;;;15.17;100.00;102178.50;5051657;28;20363;-71
2023/06/09 04:00:38;;;;;;;13.63;9.82;;;;;;;15.26;100.00;102227.13;5051717;28;20028;-71
2023/06/09 04:06:26;;;;;;;12.48;9.70;;;;;;;15.74;100.00;102265.91;5055315;28;20043;-70
2023/06/09 04:12:12;;;;;;;14.43;9.93;;;;;;;15.65;100.00;102210.44;5054986;28;20434;-69
2023/06/09 04:14:38;;;;;;;12.57;9.23;;;;;;;15.52;100.00;102179.00;5054438;28;20028;-69
2023/06/09 04:17:03;;;;;;;12.93;9.18;;;;;;;15.71;100.00;102192.41;5054432;28;20044;-70
2023/06/09 04:19:29;;;;;;;12.20;9.45;;;;;;;16.23;100.00;102290.06;5054716;28;20083;-69
2023/06/09 04:25:17;;;;;;;14.98;9.68;;;;;;;16.88;100.00;102296.78;5055183;28;20032;-70
2023/06/09 04:27:43;;;;;;;12.85;9.30;;;;;;;17.01;100.00;102314.56;5053844;28;20029;-69
2023/06/09 04:30:10;;;;;;;12.80;8.60;;;;;;;17.14;100.00;102308.31;5052601;28;20115;-68
2023/06/09 04:32:35;;;;;;;15.75;9.18;;;;;;;17.10;100.00;102300.69;5052696;28;20027;-68
2023/06/09 04:38:24;;;;;;;12.93;7.85;;;;;;;17.42;100.00;102202.38;5054312;28;20462;-69
2023/06/09 04:40:50;;;;;;;11.40;8.15;;;;;;;18.08;100.00;102237.81;5054315;28;20115;-69
2023/06/09 04:43:16;;;;;;;11.57;8.40;;;;;;;17.65;100.00;102213.91;5054396;28;20020;-68
2023/06/09 04:45:43;;;;;;;11.38;8.15;;;;;;;17.42;100.00;102146.63;5054490;28;20021;-73
2023/06/09 04:51:41;;;;;;;13.45;7.97;;;;;;;18.22;100.00;102157.69;5054446;28;20043;-72
2023/06/09 04:54:07;;;;;;;12.30;8.48;;;;;;;18.34;100.00;102139.38;5053000;28;20051;-72
2023/06/09 04:56:32;;;;;;;13.35;7.88;;;;;;;18.36;100.00;102088.63;5052981;28;20017;-72
2023/06/09 05:02:21;;;;;;;13.75;7.72;;;;;;;19.02;100.00;102070.50;5054314;28;20024;-72
2023/06/09 05:08:08;;;;;;;13.80;7.22;;;;;;;19.94;100.00;102090.03;5072200;28;20055;-71
2023/06/09 05:10:33;;;;;;;14.07;7.68;;;;;;;20.27;100.00;102070.84;5044757;23;20503;-71
2023/06/09 05:12:59;;;;;;;12.57;7.75;;;;;;;19.97;100.00;102018.44;5130357;22;20043;-71
2023/06/09 05:15:26;;;;;;;16.30;7.53;;;;;;;20.14;100.00;101971.38;5096367;28;20038;-71
2023/06/09 05:17:52;;;;;;;13.18;7.72;;;;;;;20.01;100.00;101893.47;5114273;28;20027;-71
2023/06/09 05:20:18;;;;;;;12.10;7.35;;;;;;;20.88;100.00;101974.63;5095935;28;20467;-71
2023/06/09 05:22:44;;;;;;;13.80;7.90;;;;;;;20.75;100.00;101919.13;5095472;28;20024;-71
2023/06/09 05:25:13;;;;;;;8.93;5.65;;;;;;;20.06;100.00;101808.94;5095887;28;20565;-71
2023/06/09 05:27:38;;;;;;;8.95;6.40;;;;;;;20.76;100.00;101842.41;5095361;28;20027;-72
2023/06/09 05:30:05;;;;;;;13.95;7.07;;;;;;;21.31;100.00;101801.25;5095381;28;20463;-72
2023/06/09 05:32:30;;;;;;;10.65;6.72;;;;;;;20.81;100.00;101717.19;5112898;28;20023;-71
2023/06/09 05:38:18;;;;;;;13.07;7.07;;;;;;;21.20;100.00;101732.75;5113872;28;20049;-71
2023/06/09 05:40:45;;;;;;;13.18;6.60;;;;;;;21.44;100.00;101695.44;5114114;28;20027;-71
2023/06/09 05:43:10;;;;;;;9.38;6.32;;;;;;;21.21;100.00;101665.44;5111649;28;20024;-71
2023/06/09 05:45:36;;;;;;;11.13;6.88;;;;;;;21.22;100.00;101676.59;5113308;28;20027;-71
2023/06/09 05:48:03;;;;;;;11.77;6.50;;;;;;;21.57;100.00;101666.31;5094601;28;20016;-72
2023/06/09 05:50:28;;;;;;;12.60;6.93;;;;;;;21.42;100.00;101598.88;5113257;28;20503;-74
2023/06/09 05:52:53;;;;;;;10.30;6.80;;;;;;;21.81;100.00;101640.25;5094997;28;20051;-71
2023/06/09 05:55:19;;;;;;;11.38;5.97;;;;;;;21.57;100.00;101529.09;5113320;28;20071;-72
2023/06/09 05:57:45;;;;;;;8.43;6.05;;;;;;;21.99;100.00;101572.81;5113563;28;20020;-71
2023/06/09 06:00:10;;;;;;;11.82;6.30;;;;;;;21.18;100.00;101517.22;5112857;28;20465;-71
2023/06/09 06:02:38;;;;;;;14.20;5.93;;;;;;;22.19;100.00;101513.06;5111362;28;20484;-71
2023/06/09 06:08:25;;;;;;;8.20;4.50;;;;;;;23.13;100.00;101412.00;5113696;28;20035;-72
2023/06/09 06:17:46;;;;;;;13.07;5.43;;;;;;;22.20;100.00;101258.19;5113405;28;20042;-74
2023/06/09 06:23:33;;;;;;;10.13;4.47;;;;;;;22.49;100.00;101211.63;5112766;28;20104;-71
2023/06/09 06:29:20;;;;;;;9.60;4.68;;;;;;;23.46;100.00;101206.69;5113270;28;20043;-71
2023/06/09 06:31:48;;;;;;;8.43;4.53;;;;;;;23.05;100.00;101230.78;5093972;28;20027;-72
2023/06/09 06:34:14;;;;;;;12.55;4.70;;;;;;;23.04;100.00;101697.97;5113055;28;20024;-71
2023/06/09 06:40:01;;;;;;;6.50;4.00;;;;;;;24.02;100.00;102846.94;5113084;28;20495;-71
2023/06/09 06:42:26;;;;;;;7.30;3.72;;;;;;;23.38;100.00;102952.34;5093536;28;20019;-72
2023/06/09 06:44:52;;;;;;;7.15;4.03;;;;;;;23.40;100.00;103012.88;5112213;28;20024;-71
2023/06/09 06:47:17;;;;;;;6.95;3.85;;;;;;;22.92;100.00;102991.03;5112801;28;20114;-71
2023/06/09 06:49:42;;;;;;;6.03;3.80;;;;;;;22.94;100.00;103054.13;5112110;28;20029;-72
2023/06/09 06:52:08;;;;;;;8.05;4.18;;;;;;;24.12;100.00;103198.56;5110969;28;20060;-72
2023/06/09 06:54:33;;;;;;;7.70;4.05;;;;;;;23.67;100.00;103159.28;5112462;28;20016;-73
2023/06/09 07:00:21;;;;;;;4.45;3.10;;;;;;;23.91;100.00;103343.94;5112777;28;20092;-72
2023/06/09 07:06:09;;;;;;;3.63;3.00;;;;;;;24.25;100.00;103575.34;5112671;28;20034;-72
2023/06/09 07:08:35;;;;;;;6.05;3.33;;;;;;;24.56;100.00;103830.47;5112281;28;20084;-72
2023/06/09 07:11:01;;;;;;;5.32;3.63;;;;;;;24.59;100.00;103849.47;5112169;28;20510;-72
2023/06/09 07:13:26;;;;;;;7.05;3.60;;;;;;;23.69;100.00;103783.91;5110922;28;20393;-72
2023/06/09 07:19:13;;;;;;;9.60;2.95;;;;;;;23.73;100.00;103832.34;5112538;28;20072;-71
2023/06/09 07:21:39;;;;;;;5.00;3.20;;;;;;;24.69;100.00;103844.88;5111573;28;20028;-71
2023/06/09 07:24:04;;;;;;;7.13;3.50;;;;;;;24.00;100.00;103733.78;5112128;28;20027;-72
2023/06/09 07:26:30;;;;;;;5.03;3.20;;;;;;;23.93;100.00;103747.81;5110781;28;20032;-72
2023/06/09 07:32:17;;;;;;;;;;;;;;;25.50;100.00;103886.19;5112890;28;20080;-71
2023/06/09 07:34:43;;;;;;;6.60;2.92;;;;;;;25.03;100.00;103816.25;5095713;28;19911;-71
2023/06/09 07:37:09;;;;;;;5.40;3.25;;;;;;;25.32;100.00;103787.63;5097692;28;20023;-72
2023/06/09 07:39:36;;;;;;;7.35;3.60;;;;;;;25.10;100.00;103789.97;5114730;28;20089;-72
2023/06/09 07:42:02;;;;;;;5.22;3.28;;;;;;;24.42;100.00;103694.59;5097553;28;20020;-71
2023/06/09 07:44:27;;;;;;;6.32;3.80;;;;;;;24.33;100.00;103703.50;5115659;28;20027;-72
2023/06/09 07:46:52;;;;;;;4.07;3.30;;;;;;;24.89;100.00;103728.06;5114135;28;20023;-71
2023/06/09 07:49:18;;;;;;;4.68;3.40;;;;;;;24.75;100.00;103717.16;5115485;28;20473;-71
2023/06/09 07:51:46;;;;;;;9.52;3.05;;;;;;;24.57;100.00;103689.84;5115292;28;20062;-71
2023/06/09 07:54:11;;;;;;;5.75;3.60;;;;;;;25.06;100.00;103826.59;5115865;28;20507;-71
2023/06/09 07:56:37;;;;;;;5.25;3.50;;;;;;;24.03;100.00;103723.31;5114533;28;20205;-71
2023/06/09 08:02:24;;;;;;;6.68;3.40;;;;;;;24.96;100.00;103964.03;5116081;28;20450;-71
2023/06/09 08:04:49;;;;;;;7.47;3.40;;;;;;;25.60;100.00;104021.50;5115968;28;20114;-70
2023/06/09 08:07:15;;;;;;;7.30;3.50;;;;;;;25.28;100.00;104057.91;5115782;28;20042;-71
2023/06/09 08:09:40;;;;;;;5.57;3.38;;;;;;;25.32;100.00;104103.00;5115552;28;20019;-71
2023/06/09 08:15:27;;;;;;;5.88;2.67;;;;;;;25.49;100.00;104297.31;5114286;28;20057;-71
2023/06/09 08:17:52;;;;;;;3.95;3.00;;;;;;;25.31;100.00;104302.91;5096249;28;20047;-70
2023/06/09 08:20:18;;;;;;;6.50;3.38;;;;;;;25.84;100.00;104405.25;5114885;28;20436;-73
2023/06/09 08:22:44;;;;;;;6.40;3.90;;;;;;;25.48;100.00;104359.91;5115368;28;20027;-71
2023/06/09 08:25:12;;;;;;;8.60;5.30;;;;;;;25.48;100.00;104962.31;5096602;28;20119;-71
2023/06/09 08:27:37;;;;;;;4.95;3.08;;;;;;;25.69;100.00;105350.84;5114042;28;20076;-71
2023/06/09 08:30:03;;;;;;;5.00;2.90;;;;;;;26.26;100.00;105494.13;5115079;28;20019;-71
2023/06/09 08:32:29;;;;;;;8.00;4.15;;;;;;;26.61;100.00;105614.09;5115022;28;20020;-71
2023/06/09 08:34:55;;;;;;;4.43;2.78;;;;;;;25.61;100.00;105425.66;5096688;28;20115;-71
2023/06/09 08:37:21;;;;;;;4.28;2.75;;;;;;;25.32;100.00;105443.06;5114527;28;20104;-71
2023/06/09 08:39:47;;;;;;;4.85;3.35;;;;;;;25.29;100.00;105527.41;5097477;28;20118;-71
2023/06/09 08:42:21;;;;;;;6.50;3.10;;;;;;;25.49;100.00;105634.38;5096262;28;20023;-71
2023/06/09 08:44:49;;;;;;;6.88;3.20;;;;;;;25.87;100.00;105776.13;5096818;28;20024;-71
2023/06/09 08:47:20;;;;;;;3.60;2.75;;;;;;;25.10;100.00;105661.22;5113138;28;20024;-70
2023/06/09 08:49:47;;;;;;;4.45;3.20;;;;;;;25.99;100.00;107410.84;5114677;28;20020;-71
2023/06/09 08:52:13;;;;;;;4.70;3.08;;;;;;;26.43;100.00;107394.59;5114651;28;20027;-71
2023/06/09 08:54:40;;;;;;;5.03;3.20;;;;;;;25.51;100.00;107282.50;5095630;28;20084;-71
2023/06/09 08:57:06;;;;;;;6.18;2.70;;;;;;;25.33;100.00;107313.34;5112741;28;20042;-72
2023/06/09 08:59:34;;;;;;;6.32;2.80;;;;;;;25.48;100.00;107333.75;5114543;28;20024;-70
2023/06/09 09:02:01;;;;;;;4.03;2.70;;;;;;;24.90;100.00;107284.25;5114555;28;20506;-70
2023/06/09 09:04:27;;;;;;;5.03;2.70;;;;;;;26.53;100.00;107612.66;5096084;28;20039;-70
2023/06/09 09:06:55;;;;;;;5.20;2.85;;;;;;;26.90;100.00;107494.25;5114377;28;20423;-73
2023/06/09 09:09:20;;;;;;;5.10;2.75;;;;;;;26.69;100.00;107301.06;5114316;28;20152;-70
2023/06/09 09:15:07;;;;;;;;;;;;;;;26.29;100.00;106889.06;5114720;28;20062;-70
2023/06/09 09:17:34;;;;;;;7.93;2.88;;;;;;;26.34;100.00;107062.50;5112052;28;19907;-70
2023/06/09 09:20:07;;;;;;;5.40;2.63;;;;;;;26.14;100.00;107010.69;5095923;28;20405;-69
2023/06/09 09:22:43;;;;;;;5.38;2.85;;;;;;;26.03;100.00;107116.69;5095537;28;20385;-69
2023/06/09 09:28:40;;;;;;;;;;;;;;;27.33;100.00;107372.25;5114753;28;20122;-70
2023/06/09 09:31:08;;;;;;;6.57;2.88;;;;;;;25.96;100.00;107011.19;5114030;28;19954;-69
2023/06/09 09:33:36;;;;;;;4.68;2.33;;;;;;;25.89;100.00;107045.00;5116192;28;20030;-69
2023/06/09 09:39:24;;;;;;;6.80;3.00;;;;;;;26.54;100.00;106810.16;5117701;28;20049;-71
2023/06/09 09:42:10;;;;;;;6.00;2.90;;;;;;;27.31;100.00;107127.00;5095447;28;20159;-73
2023/06/09 09:44:43;;;;;;;7.80;2.70;;;;;;;26.89;100.00;107106.22;5114218;28;20028;-73
2023/06/09 09:47:12;;;;;;;3.75;2.72;;;;;;;27.85;100.00;107137.44;5095265;28;20024;-72
2023/06/09 09:49:53;;;;;;;4.15;2.50;;;;;;;28.91;100.00;107231.41;5113797;28;20027;-73
2023/06/09 09:52:30;;;;;;;5.47;2.97;;;;;;;27.69;100.00;106795.00;5113318;28;20034;-72
2023/06/09 09:54:58;;;;;;;15.38;7.10;;;;;;;27.54;100.00;106815.78;5095346;28;20042;-73
2023/06/09 09:57:28;;;;;;;6.82;3.63;;;;;;;27.53;100.00;106840.25;5112806;28;20026;-72
2023/06/09 10:03:19;;;;;;;4.22;2.70;;;;;;;26.73;100.00;106774.75;5113675;28;20492;-72
2023/06/09 10:05:48;;;;;;;5.57;2.60;;;;;;;27.16;100.00;106871.19;5112810;28;20103;-73
2023/06/09 10:08:28;;;;;;;3.78;2.90;;;;;;;26.95;100.00;106833.41;5112854;28;20028;-73
2023/06/09 10:11:02;;;;;;;7.00;3.05;;;;;;;27.26;100.00;106702.97;5104926;22;20053;-72
2023/06/09 10:13:29;;;;;;;3.42;2.50;;;;;;;27.50;100.00;106647.34;5016215;28;20036;-73
2023/06/09 10:15:56;;;;;;;3.85;2.50;;;;;;;27.65;100.00;106397.88;5016590;28;20414;-72
2023/06/09 10:18:23;;;;;;;5.20;2.60;;;;;;;28.02;100.00;106247.78;5014685;28;20033;-72
2023/06/09 10:20:53;;;;;;;5.93;2.70;;;;;;;26.62;100.00;105673.34;5014742;28;20324;-72
2023/06/09 10:23:19;;;;;;;4.97;3.08;;;;;;;27.27;100.00;105446.28;5032373;28;20100;-73
2023/06/09 10:25:48;;;;;;;5.32;3.00;;;;;;;27.11;100.00;105022.81;5016112;28;20032;-72
2023/06/09 10:28:16;;;;;;;3.97;2.92;;;;;;;27.78;100.00;104582.72;5016140;28;20391;-72
2023/06/09 10:30:42;;;;;;;6.28;3.13;;;;;;;28.40;100.00;104261.38;5016717;28;20029;-72
2023/06/09 10:33:10;;;;;;;6.95;3.00;;;;;;;27.93;100.00;103797.03;5013948;28;20026;-72
2023/06/09 10:35:38;;;;;;;6.63;2.88;;;;;;;28.35;100.00;103611.97;5014291;28;20116;-72
2023/06/09 10:38:22;;;;;;;4.82;3.20;;;;;;;28.03;100.00;103222.50;5013869;28;20045;-72
2023/06/09 10:40:52;;;;;;;6.75;3.10;;;;;;;27.60;100.00;102959.53;5013571;28;20029;-72
2023/06/09 10:43:59;;;;;;;5.17;2.97;;;;;;;27.70;100.00;102821.25;5031436;28;20112;-71
2023/06/09 10:46:45;;;;;;;5.38;3.15;;;;;;;27.66;100.00;102778.75;5031495;28;20034;-72
2023/06/09 10:49:25;;;;;;;5.82;3.20;;;;;;;28.66;100.00;102616.72;5031078;28;20029;-72
2023/06/09 10:51:54;;;;;;;5.05;3.20;;;;;;;28.07;100.00;102324.56;5013409;28;20095;-72
2023/06/09 10:54:20;;;;;;;5.03;3.25;;;;;;;27.88;100.00;102098.19;5030268;28;20025;-73
2023/06/09 10:56:52;;;;;;;5.20;3.50;;;;;;;26.84;100.00;101862.91;5030982;28;20450;-71
2023/06/09 10:59:23;;;;;;;4.10;3.25;;;;;;;27.59;100.00;101875.28;5031066;28;20021;-73
2023/06/09 11:02:04;;;;;;;5.28;3.17;;;;;;;27.62;100.00;101833.22;5013656;28;20399;-73
2023/06/09 11:04:43;;;;;;;6.35;3.33;;;;;;;28.62;100.00;101596.44;5030902;28;20022;-71
2023/06/09 11:07:17;;;;;;;4.88;3.33;;;;;;;27.81;100.00;101430.03;5012767;28;20034;-72
2023/06/09 11:10:07;;;;;;;6.30;3.42;;;;;;;28.11;100.00;101432.91;5012726;28;20076;-72
2023/06/09 11:12:39;;;;;;;5.57;3.42;;;;;;;27.97;100.00;101297.97;5020889;28;20039;-72
2023/06/09 11:15:06;;;;;;;4.28;3.42;;;;;;;28.54;100.00;101239.25;5030626;28;20025;-71
2023/06/09 11:17:39;;;;;;;6.80;3.40;;;;;;;27.48;100.00;101168.59;4996989;28;20037;-71
2023/06/09 11:20:11;;;;;;;7.40;3.40;;;;;;;28.34;100.00;101068.16;5012415;28;20030;-71
2023/06/09 11:22:47;;;;;;;5.63;3.58;;;;;;;28.38;100.00;101019.00;5031281;28;20059;-71
2023/06/09 11:25:19;;;;;;;4.10;3.33;;;;;;;28.44;100.00;100912.00;5030626;28;20025;-71
2023/06/09 11:27:46;;;;;;;6.22;3.35;;;;;;;27.78;100.00;100845.38;5012797;28;20033;-71
2023/06/09 11:30:17;;;;;;;6.05;3.20;;;;;;;27.84;100.00;100786.50;5030576;28;20017;-71
2023/06/09 11:32:54;;;;;;;5.30;3.22;;;;;;;28.25;100.00;100655.50;5012736;28;20087;-72
2023/06/09 11:35:40;;;;;;;5.53;3.40;;;;;;;27.93;100.00;100586.97;5029802;28;20387;-70
2023/06/09 11:38:08;;;;;;;7.00;3.53;;;;;;;27.99;100.00;100534.94;5030376;28;20128;-72
2023/06/09 11:40:36;;;;;;;4.57;3.30;;;;;;;28.53;100.00;100474.03;5030564;28;20048;-72
2023/06/09 11:43:02;;;;;;;5.75;3.55;;;;;;;28.50;100.00;100400.22;5012269;28;20017;-72
2023/06/09 11:45:31;;;;;;;6.43;3.20;;;;;;;28.05;100.00;100304.22;5030453;28;20164;-71
2023/06/09 11:47:59;;;;;;;4.93;3.40;;;;;;;27.27;100.00;100252.41;5011907;28;20036;-71
2023/06/09 11:50:26;;;;;;;6.30;3.60;;;;;;;28.42;100.00;100267.50;5012685;28;20021;-71
2023/06/09 11:53:02;;;;;;;4.03;3.50;;;;;;;28.06;100.00;100163.84;5030601;28;20361;-71
2023/06/09 11:55:28;;;;;;;4.65;3.60;;;;;;;28.34;100.00;100182.88;5012409;28;20029;-72
2023/06/09 11:57:54;;;;;;;4.55;3.70;;;;;;;27.70;100.00;100152.50;5030287;28;20030;-71
2023/06/09 12:00:26;;;;;;;5.72;3.38;;;;;;;28.06;100.00;100090.59;5030073;28;20025;-72
2023/06/09 12:02:51;;;;;;;4.93;3.53;;;;;;;29.10;100.00;100085.19;5011990;28;20064;-71
2023/06/09 12:05:17;;;;;;;5.70;3.50;;;;;;;28.72;100.00;100051.66;5029599;28;20022;-71
2023/06/09 12:07:47;;;;;;;7.20;3.63;;;;;;;28.65;100.00;100050.63;5030008;28;20037;-71
2023/06/09 12:10:17;;;;;;;7.55;3.60;;;;;;;28.16;100.00;100054.72;5029326;28;20049;-71
2023/06/09 12:12:54;;;;;;;7.05;3.45;;;;;;;27.93;100.00;99996.81;5012186;28;20116;-72
2023/06/09 12:15:21;;;;;;;7.30;3.70;;;;;;;28.01;100.00;99977.78;5029817;28;20484;-72
2023/06/09 12:17:52;;;;;;;4.80;3.30;;;;;;;27.99;100.00;99964.88;5011677;28;20433;-72
2023/06/09 12:20:28;;;;;;;4.50;3.53;;;;;;;28.45;100.00;100036.91;5011881;28;20033;-71
2023/06/09 12:23:08;;;;;;;6.40;3.65;;;;;;;29.24;100.00;99985.03;5033341;28;20029;-71
2023/06/09 12:25:36;;;;;;;5.88;3.63;;;;;;;27.73;100.00;99950.94;5033285;28;20029;-71
2023/06/09 12:28:26;;;;;;;6.00;3.42;;;;;;;28.10;100.00;100029.19;5033112;28;20056;-71
2023/06/09 12:30:53;;;;;;;5.97;3.90;;;;;;;28.67;100.00;100001.53;5032954;28;20025;-71
2023/06/09 12:33:22;;;;;;;5.60;3.58;;;;;;;27.88;100.00;99951.22;5033239;28;20021;-71
2023/06/09 12:35:50;;;;;;;5.70;3.58;;;;;;;28.38;100.00;99980.97;5032942;28;20064;-71
2023/06/09 12:38:19;;;;;;;5.55;3.53;;;;;;;29.02;100.00;99951.56;5032675;28;20033;-71
2023/06/09 12:41:07;;;;;;;4.82;3.33;;;;;;;28.76;100.00;99919.47;5033188;28;20048;-71
2023/06/09 12:43:59;;;;;;;6.25;3.53;;;;;;;28.84;100.00;99972.63;5014860;28;20025;-71
2023/06/09 12:46:38;;;;;;;4.78;3.42;;;;;;;28.30;100.00;99894.59;5029558;28;20484;-71
2023/06/09 12:49:08;;;;;;;5.07;3.60;;;;;;;28.86;100.00;99876.41;5015190;28;20159;-71
2023/06/09 12:51:36;;;;;;;7.13;3.28;;;;;;;28.60;100.00;99925.47;5032586;28;20021;-72
2023/06/09 12:54:03;;;;;;;4.55;3.40;;;;;;;28.77;100.00;99921.91;5014624;28;20034;-72
2023/06/09 12:56:28;;;;;;;7.07;3.45;;;;;;;28.98;100.00;99869.06;5015060;28;20021;-72
2023/06/09 12:58:54;;;;;;;6.20;3.20;;;;;;;28.63;100.00;99914.66;5014651;28;20494;-72
2023/06/09 13:01:21;;;;;;;4.22;3.67;;;;;;;28.58;100.00;99888.16;5032156;28;20395;-73
2023/06/09 13:03:46;;;;;;;5.43;3.72;;;;;;;29.22;100.00;99926.75;5032108;28;20033;-72
2023/06/09 13:06:12;;;;;;;5.38;3.40;;;;;;;28.46;100.00;99876.31;5032039;28;20449;-72
2023/06/09 13:08:38;;;;;;;5.10;3.60;;;;;;;28.51;100.00;99878.44;5032524;28;20450;-72
2023/06/09 13:11:03;;;;;;;7.25;3.60;;;;;;;28.57;100.00;99909.25;5013996;28;20048;-72
2023/06/09 13:13:30;;;;;;;5.18;3.70;;;;;;;28.68;100.00;99956.88;5014982;28;20037;-73
2023/06/09 13:15:56;;;;;;;6.22;3.65;;;;;;;28.37;100.00;99945.28;5014364;28;20091;-72
2023/06/09 13:18:21;;;;;;;5.18;3.88;;;;;;;28.98;100.00;99911.78;5014167;28;20107;-72
2023/06/09 13:20:47;;;;;;;4.55;3.33;;;;;;;28.12;100.00;99865.09;5032168;28;20490;-72
2023/06/09 13:23:14;;;;;;;6.15;3.67;;;;;;;28.84;100.00;99851.41;5032213;28;20117;-72
2023/06/09 13:25:41;;;;;;;6.13;4.38;;;;;;;28.09;100.00;99896.75;5032332;28;20479;-71
2023/06/09 13:28:14;;;;;;;5.15;3.47;;;;;;;28.44;100.00;99919.31;5032175;28;20030;-72
2023/06/09 13:30:40;;;;;;;5.45;3.78;;;;;;;27.98;100.00;99816.81;5013322;28;20035;-73
2023/06/09 13:33:07;;;;;;;6.68;3.30;;;;;;;28.44;100.00;99857.34;5014069;28;20106;-73
2023/06/09 13:35:33;;;;;;;4.47;3.67;;;;;;;28.83;100.00;99902.94;5031302;28;20487;-74
2023/06/09 13:38:00;;;;;;;5.57;3.03;;;;;;;28.75;100.00;99897.69;5031804;28;20116;-72
2023/06/09 13:40:25;;;;;;;6.55;3.40;;;;;;;28.14;100.00;99823.91;5031974;28;20030;-72
2023/06/09 13:42:52;;;;;;;3.30;2.92;;;;;;;28.82;100.00;99816.72;5013977;28;20032;-73
2023/06/09 13:45:23;;;;;;;8.55;3.78;;;;;;;28.78;100.00;99892.13;5031658;28;20067;-72